createdAt,value
2022-10-15T00:01:01.522Z,15.10
2022-10-15T00:03:50.515Z,15.10
2022-10-15T00:06:27.070Z,15.10
2022-10-15T00:09:05.364Z,15.20
2022-10-15T00:11:44.203Z,15.20
2022-10-15T00:17:04.186Z,15.20
2022-10-15T00:19:48.320Z,15.20
2022-10-15T00:22:26.976Z,15.20
2022-10-15T00:25:08.914Z,15.20
2022-10-15T00:36:03.233Z,15.20
2022-10-15T00:41:32.322Z,15.20
2022-10-15T00:44:17.286Z,15.20
2022-10-15T00:47:00.920Z,15.20
2022-10-15T00:49:36.825Z,15.20
2022-10-15T00:52:27.180Z,15.20
2022-10-15T00:55:12.036Z,15.20
2022-10-15T00:57:50.765Z,15.30
2022-10-15T01:03:04.657Z,14.50
2022-10-15T01:05:46.122Z,15.30
2022-10-15T01:11:06.457Z,15.30
2022-10-15T01:13:53.533Z,15.00
2022-10-15T01:16:35.190Z,15.30
2022-10-15T01:19:21.265Z,15.30
2022-10-15T01:22:14.232Z,15.30
2022-10-15T01:25:22.277Z,15.30
2022-10-15T01:28:32.789Z,15.30
2022-10-15T01:31:30.871Z,15.30
2022-10-15T01:37:10.295Z,15.40
2022-10-15T01:39:55.264Z,15.30
2022-10-15T01:42:46.183Z,15.40
2022-10-15T01:45:27.519Z,15.40
2022-10-15T01:48:15.744Z,15.40
2022-10-15T01:51:04.580Z,15.30
2022-10-15T01:56:24.172Z,15.40
2022-10-15T01:59:09.838Z,15.50
2022-10-15T02:01:57.539Z,15.40
2022-10-15T02:04:43.028Z,15.40
2022-10-15T02:07:33.290Z,15.40
2022-10-15T02:10:17.945Z,15.40
2022-10-15T02:13:13.784Z,15.40
2022-10-15T02:15:58.517Z,15.40
2022-10-15T02:18:45.723Z,15.40
2022-10-15T02:21:27.717Z,15.40
2022-10-15T02:24:15.975Z,15.40
2022-10-15T02:26:54.655Z,16.00
2022-10-15T02:29:34.500Z,15.60
2022-10-15T02:32:14.877Z,15.50
2022-10-15T02:34:55.933Z,15.50
2022-10-15T02:38:00.406Z,15.50
2022-10-15T02:40:40.857Z,15.50
2022-10-15T02:56:39.674Z,15.50
2022-10-15T03:01:46.744Z,15.60
2022-10-15T03:04:32.637Z,18.80
2022-10-15T03:14:55.871Z,15.70
2022-10-15T03:30:49.392Z,15.70
2022-10-15T03:44:03.085Z,15.80
2022-10-15T03:49:20.842Z,15.80
2022-10-15T03:57:31.233Z,15.80
2022-10-15T04:13:10.581Z,15.80
2022-10-15T04:18:23.762Z,15.80
2022-10-15T04:20:58.757Z,15.80
2022-10-15T04:23:39.069Z,15.80
2022-10-15T04:26:22.625Z,16.00
2022-10-15T04:42:03.963Z,15.90
2022-10-15T04:52:39.172Z,15.90
2022-10-15T05:11:24.912Z,15.90
2022-10-15T05:14:00.744Z,15.90
2022-10-15T05:16:46.403Z,15.90
2022-10-15T05:22:11.742Z,15.90
2022-10-15T05:24:57.810Z,15.90
2022-10-15T05:27:40.942Z,15.80
2022-10-15T05:30:17.375Z,15.90
2022-10-15T05:33:00.025Z,15.80
2022-10-15T05:59:33.998Z,15.80
2022-10-15T06:12:42.775Z,16.90
2022-10-15T06:15:19.374Z,15.80
2022-10-15T06:28:41.371Z,15.80
2022-10-15T06:33:50.879Z,15.70
2022-10-15T06:36:28.165Z,15.80
2022-10-15T06:38:57.067Z,15.50
2022-10-15T06:41:34.809Z,15.90
2022-10-15T06:44:12.242Z,16.30
2022-10-15T06:46:45.474Z,15.90
2022-10-15T06:49:16.852Z,15.60
2022-10-15T06:51:51.178Z,15.90
2022-10-15T06:56:54.918Z,16.00
2022-10-15T07:01:59.450Z,15.70
2022-10-15T07:04:30.011Z,14.10
2022-10-15T07:07:06.528Z,15.90
2022-10-15T07:09:37.476Z,16.50
2022-10-15T07:12:11.154Z,16.00
2022-10-15T07:17:19.460Z,15.90
2022-10-15T07:19:51.424Z,16.00
2022-10-15T07:22:26.003Z,16.00
2022-10-15T07:25:02.691Z,15.50
2022-10-15T07:27:33.755Z,15.60
2022-10-15T07:30:07.005Z,15.90
2022-10-15T07:32:37.530Z,16.30
2022-10-15T07:35:09.359Z,16.00
2022-10-15T07:40:22.058Z,15.40
2022-10-15T07:43:05.116Z,16.00
2022-10-15T07:45:34.885Z,17.30
2022-10-15T07:48:15.904Z,16.00
2022-10-15T07:50:47.873Z,16.50
2022-10-15T07:53:28.516Z,16.10
2022-10-15T07:56:10.561Z,16.20
2022-10-15T07:58:51.987Z,16.00
2022-10-15T08:01:25.151Z,16.00
2022-10-15T08:04:08.198Z,16.00
2022-10-15T08:06:38.765Z,16.00
2022-10-15T08:09:14.534Z,16.10
2022-10-15T08:11:44.657Z,16.10
2022-10-15T08:14:19.066Z,16.20
2022-10-15T08:16:53.714Z,16.80
2022-10-15T08:19:29.844Z,16.20
2022-10-15T08:21:59.535Z,16.30
2022-10-15T08:24:33.089Z,16.60
2022-10-15T08:27:05.979Z,16.60
2022-10-15T08:29:39.839Z,16.60
2022-10-15T08:32:16.225Z,16.60
2022-10-15T08:34:51.408Z,16.70
2022-10-15T08:37:27.498Z,16.80
2022-10-15T08:39:58.502Z,17.10
2022-10-15T08:42:50.957Z,17.20
2022-10-15T08:45:30.321Z,17.60
2022-10-15T08:48:06.797Z,17.40
2022-10-15T08:50:44.589Z,17.60
2022-10-15T08:53:19.161Z,17.70
2022-10-15T08:55:52.772Z,17.40
2022-10-15T08:58:30.503Z,17.90
2022-10-15T09:01:07.769Z,17.70
2022-10-15T09:03:47.018Z,17.80
2022-10-15T09:06:23.646Z,18.30
2022-10-15T09:09:01.234Z,17.70
2022-10-15T09:11:46.179Z,18.00
2022-10-15T09:14:18.561Z,18.40
2022-10-15T09:16:51.731Z,18.10
2022-10-15T09:19:28.439Z,17.60
2022-10-15T09:22:06.601Z,17.80
2022-10-15T09:24:37.923Z,17.80
2022-10-15T09:27:17.457Z,17.60
2022-10-15T09:29:55.325Z,17.70
2022-10-15T09:32:38.160Z,17.60
2022-10-15T09:35:19.467Z,17.60
2022-10-15T09:37:56.042Z,17.70
2022-10-15T09:40:45.329Z,17.80
2022-10-15T09:43:28.431Z,17.90
2022-10-15T09:45:57.151Z,17.80
2022-10-15T09:48:31.730Z,17.60
2022-10-15T09:51:11.718Z,17.70
2022-10-15T09:53:49.954Z,17.90
2022-10-15T09:56:27.734Z,17.90
2022-10-15T09:59:01.997Z,18.00
2022-10-15T10:01:39.609Z,18.00
2022-10-15T10:04:20.412Z,18.30
2022-10-15T10:06:54.445Z,18.30
2022-10-15T10:09:29.316Z,18.10
2022-10-15T10:12:02.639Z,18.00
2022-10-15T10:14:36.970Z,17.70
2022-10-15T10:17:07.508Z,17.90
2022-10-15T10:19:36.015Z,17.70
2022-10-15T10:22:14.087Z,17.80
2022-10-15T10:24:42.563Z,17.90
2022-10-15T10:27:24.691Z,17.90
2022-10-15T10:29:58.440Z,18.40
2022-10-15T10:32:31.306Z,18.00
2022-10-15T10:35:06.162Z,18.50
2022-10-15T10:37:44.094Z,18.40
2022-10-15T10:40:27.641Z,18.50
2022-10-15T10:43:14.387Z,18.80
2022-10-15T10:45:55.130Z,18.90
2022-10-15T10:48:27.531Z,19.10
2022-10-15T10:51:19.359Z,19.30
2022-10-15T10:53:55.523Z,19.70
2022-10-15T10:56:26.193Z,19.70
2022-10-15T10:58:59.923Z,19.80
2022-10-15T11:01:35.803Z,19.90
2022-10-15T11:07:03.750Z,19.60
2022-10-15T11:09:55.433Z,19.80
2022-10-15T11:12:37.331Z,20.00
2022-10-15T11:15:20.354Z,20.10
2022-10-15T11:18:02.736Z,20.10
2022-10-15T11:20:59.777Z,20.30
2022-10-15T11:23:46.615Z,20.60
2022-10-15T11:26:37.021Z,20.60
2022-10-15T11:29:16.757Z,20.40
2022-10-15T11:32:02.874Z,20.40
2022-10-15T11:34:49.039Z,20.20
2022-10-15T11:37:32.153Z,20.20
2022-10-15T11:40:20.506Z,19.90
2022-10-15T11:42:57.599Z,19.80
2022-10-15T11:45:48.777Z,19.90
2022-10-15T11:48:27.712Z,19.90
2022-10-15T11:51:18.485Z,20.10
2022-10-15T11:54:19.361Z,19.70
2022-10-15T11:56:50.713Z,19.90
2022-10-15T11:59:34.009Z,20.10
2022-10-15T12:02:06.803Z,20.10
2022-10-15T12:04:41.095Z,20.10
2022-10-15T12:07:23.001Z,19.90
2022-10-15T12:09:54.529Z,19.60
2022-10-15T12:12:38.153Z,19.00
2022-10-15T12:15:28.537Z,19.10
2022-10-15T12:18:05.221Z,18.60
2022-10-15T12:20:34.878Z,18.80
2022-10-15T12:23:09.985Z,18.90
2022-10-15T12:25:46.999Z,18.90
2022-10-15T12:28:20.803Z,18.70
2022-10-15T12:31:01.126Z,18.80
2022-10-15T12:33:48.967Z,18.60
2022-10-15T12:36:28.522Z,18.30
2022-10-15T12:39:11.475Z,18.20
2022-10-15T12:41:52.981Z,18.20
2022-10-15T12:47:00.626Z,18.20
2022-10-15T12:50:00.707Z,17.90
2022-10-15T12:53:04.137Z,18.30
2022-10-15T12:55:36.496Z,18.80
2022-10-15T12:58:08.372Z,18.10
2022-10-15T13:00:47.450Z,18.00
2022-10-15T13:03:38.187Z,17.80
2022-10-15T13:06:34.176Z,17.70
2022-10-15T13:09:12.570Z,17.50
2022-10-15T13:11:45.940Z,17.50
2022-10-15T13:14:29.636Z,17.60
2022-10-15T13:16:59.132Z,17.70
2022-10-15T13:19:29.963Z,17.70
2022-10-15T13:21:59.962Z,17.90
2022-10-15T13:24:29.591Z,18.00
2022-10-15T13:27:01.832Z,18.30
2022-10-15T13:29:30.116Z,18.40
2022-10-15T13:32:01.437Z,18.60
2022-10-15T13:34:31.511Z,18.50
2022-10-15T13:37:01.070Z,18.50
2022-10-15T13:39:35.791Z,18.70
2022-10-15T13:42:18.801Z,18.40
2022-10-15T13:45:01.370Z,18.60
2022-10-15T13:47:33.205Z,18.40
2022-10-15T13:50:23.018Z,18.40
2022-10-15T13:52:56.512Z,17.90
2022-10-15T13:55:29.557Z,18.00
2022-10-15T13:58:01.492Z,17.80
2022-10-15T14:00:36.447Z,17.70
2022-10-15T14:03:32.274Z,17.70
2022-10-15T14:06:17.448Z,17.70
2022-10-15T14:08:47.573Z,17.60
2022-10-15T14:11:16.676Z,17.50
2022-10-15T14:13:51.163Z,17.50
2022-10-15T14:16:27.628Z,17.60
2022-10-15T14:19:01.057Z,17.60
2022-10-15T14:21:32.677Z,17.70
2022-10-15T14:24:07.605Z,17.70
2022-10-15T14:26:39.357Z,17.60
2022-10-15T14:29:18.466Z,17.60
2022-10-15T14:31:49.909Z,17.50
2022-10-15T14:34:42.880Z,17.50
2022-10-15T14:37:32.793Z,17.50
2022-10-15T14:40:13.957Z,17.50
2022-10-15T14:42:44.368Z,17.40
2022-10-15T14:45:21.439Z,17.50
2022-10-15T14:47:52.042Z,17.50
2022-10-15T14:50:24.439Z,17.50
2022-10-15T14:52:55.343Z,17.60
2022-10-15T14:55:33.683Z,17.60
2022-10-15T14:58:08.246Z,17.60
2022-10-15T15:00:43.126Z,17.70
2022-10-15T15:03:25.192Z,17.60
2022-10-15T15:05:55.747Z,17.70
2022-10-15T15:08:25.599Z,17.60
2022-10-15T15:10:56.598Z,17.60
2022-10-15T15:13:28.518Z,17.60
2022-10-15T15:15:58.526Z,17.50
2022-10-15T15:18:28.180Z,17.30
2022-10-15T15:21:03.364Z,17.40
2022-10-15T15:23:32.596Z,17.40
2022-10-15T15:26:03.867Z,17.40
2022-10-15T15:28:32.961Z,17.40
2022-10-15T15:31:06.325Z,17.50
2022-10-15T15:33:35.580Z,17.50
2022-10-15T15:36:06.594Z,17.50
2022-10-15T15:41:16.197Z,17.50
2022-10-15T15:43:46.020Z,17.40
2022-10-15T15:46:17.473Z,17.30
2022-10-15T15:48:45.929Z,17.30
2022-10-15T15:51:22.096Z,17.20
2022-10-15T15:53:53.575Z,17.10
2022-10-15T15:56:22.509Z,17.20
2022-10-15T15:58:51.438Z,17.10
2022-10-15T16:01:23.302Z,16.90
2022-10-15T16:03:51.581Z,17.10
2022-10-15T16:06:20.852Z,17.10
2022-10-15T16:08:55.871Z,17.20
2022-10-15T16:11:27.502Z,17.10
2022-10-15T16:13:56.342Z,17.10
2022-10-15T16:16:28.610Z,17.10
2022-10-15T16:18:57.524Z,17.00
2022-10-15T16:21:32.483Z,17.00
2022-10-15T16:24:03.309Z,17.00
2022-10-15T16:26:31.727Z,17.00
2022-10-15T16:29:00.437Z,17.00
2022-10-15T16:31:34.976Z,16.90
2022-10-15T16:34:05.077Z,16.90
2022-10-15T16:36:34.212Z,16.90
2022-10-15T16:39:04.248Z,16.40
2022-10-15T16:41:35.758Z,16.80
2022-10-15T16:44:05.017Z,16.40
2022-10-15T16:46:37.817Z,16.80
2022-10-15T16:49:06.344Z,16.80
2022-10-15T16:51:39.845Z,16.80
2022-10-15T16:54:15.560Z,16.80
2022-10-15T16:56:50.567Z,16.80
2022-10-15T16:59:23.339Z,16.80
2022-10-15T17:01:53.685Z,16.70
2022-10-15T17:04:22.122Z,16.70
2022-10-15T17:06:51.246Z,16.70
2022-10-15T17:09:27.280Z,17.00
2022-10-15T17:12:02.526Z,16.80
2022-10-15T17:17:04.967Z,16.60
2022-10-15T17:22:08.592Z,16.70
2022-10-15T17:24:40.601Z,16.70
2022-10-15T17:32:08.567Z,16.70
2022-10-15T17:34:42.525Z,16.80
2022-10-15T17:39:40.375Z,16.70
2022-10-15T17:44:56.437Z,16.80
2022-10-15T17:47:27.925Z,16.70
2022-10-15T17:50:19.932Z,16.80
2022-10-15T17:53:03.684Z,15.50
2022-10-15T17:55:42.019Z,16.30
2022-10-15T17:58:23.117Z,16.50
2022-10-15T18:00:56.315Z,17.10
2022-10-15T18:03:38.241Z,16.50
2022-10-15T18:06:18.849Z,16.40
2022-10-15T18:08:56.016Z,16.50
2022-10-15T18:11:30.650Z,16.50
2022-10-15T18:16:42.211Z,16.50
2022-10-15T18:19:22.679Z,16.40
2022-10-15T18:24:35.052Z,16.50
2022-10-15T18:27:08.769Z,17.50
2022-10-15T18:34:45.301Z,16.60
2022-10-15T18:37:23.680Z,16.40
2022-10-15T18:39:55.209Z,16.40
2022-10-15T18:42:32.873Z,16.20
2022-10-15T18:45:02.211Z,16.60
2022-10-15T18:47:39.866Z,16.50
2022-10-15T18:50:18.260Z,16.40
2022-10-15T18:55:26.899Z,16.50
2022-10-15T18:58:04.292Z,15.90
2022-10-15T19:00:59.673Z,16.40
2022-10-15T19:03:31.586Z,16.50
2022-10-15T19:06:13.366Z,16.50
2022-10-15T19:11:23.721Z,16.50
2022-10-15T19:14:08.346Z,18.50
2022-10-15T19:16:48.232Z,16.60
2022-10-15T19:19:24.903Z,16.60
2022-10-15T19:22:03.267Z,16.60
2022-10-15T19:24:37.941Z,16.60
2022-10-15T19:27:15.106Z,16.70
2022-10-15T19:29:53.278Z,16.70
2022-10-15T19:33:03.142Z,16.70
2022-10-15T19:35:39.276Z,16.90
2022-10-15T19:38:18.745Z,16.60
2022-10-15T19:43:35.171Z,17.10
2022-10-15T19:46:20.987Z,16.60
2022-10-15T19:49:05.244Z,15.10
2022-10-15T19:51:54.526Z,16.50
2022-10-15T19:54:31.404Z,16.80
2022-10-15T19:57:11.814Z,16.40
2022-10-15T20:05:16.910Z,16.00
2022-10-15T20:10:52.206Z,16.30
2022-10-15T20:13:26.853Z,16.30
2022-10-15T20:18:42.671Z,16.40
2022-10-15T20:21:20.753Z,16.40
2022-10-15T20:23:54.034Z,16.40
2022-10-15T20:26:35.217Z,16.40
2022-10-15T20:32:02.064Z,16.50
2022-10-15T20:34:51.321Z,16.40
2022-10-15T20:42:32.949Z,16.40
2022-10-15T20:45:16.927Z,16.30
2022-10-15T20:47:58.049Z,16.30
2022-10-15T20:50:38.824Z,16.30
2022-10-15T20:53:23.351Z,16.30
2022-10-15T20:55:58.102Z,16.30
2022-10-15T20:58:41.359Z,16.30
2022-10-15T21:01:18.806Z,16.30
2022-10-15T21:04:27.610Z,16.30
2022-10-15T21:14:57.909Z,16.20
2022-10-15T21:20:08.604Z,16.00
2022-10-15T21:22:48.952Z,16.20
2022-10-15T21:27:59.735Z,16.10
2022-10-15T21:30:31.887Z,16.20
2022-10-15T21:43:33.512Z,16.20
2022-10-15T21:46:25.964Z,16.30
2022-10-15T21:49:02.771Z,16.20
2022-10-15T21:51:40.093Z,16.40
2022-10-15T21:54:18.405Z,16.10
2022-10-15T21:56:53.033Z,16.20
2022-10-15T21:59:34.492Z,16.30
2022-10-15T22:02:13.282Z,16.30
2022-10-15T22:15:11.379Z,16.30
2022-10-15T22:17:48.073Z,16.30
2022-10-15T22:20:23.832Z,16.20
2022-10-15T22:23:08.072Z,16.20
2022-10-15T22:31:40.714Z,16.30
2022-10-15T22:39:26.937Z,16.30
2022-10-15T22:55:25.992Z,16.40
2022-10-15T23:00:28.888Z,16.40
2022-10-15T23:03:02.686Z,16.70
2022-10-15T23:05:38.892Z,16.40
2022-10-15T23:08:15.798Z,16.40
2022-10-15T23:15:52.398Z,16.30
2022-10-15T23:21:13.561Z,16.30
2022-10-15T23:26:15.754Z,14.10
2022-10-15T23:28:52.152Z,15.10
2022-10-15T23:31:24.490Z,16.10
2022-10-15T23:33:58.552Z,16.10
2022-10-15T23:36:33.721Z,16.10
2022-10-15T23:39:06.868Z,16.10
2022-10-15T23:41:36.972Z,16.20
2022-10-15T23:46:47.209Z,16.00
2022-10-15T23:49:21.754Z,16.00
2022-10-15T23:51:52.907Z,16.10
2022-10-15T23:54:29.168Z,16.10
2022-10-15T23:57:01.366Z,16.10
2022-10-15T23:59:43.785Z,16.00
